Gilleleje, Denmark
Current Conditions -  °F | °C
As of 2:50 AM on Tuesday 25 Nov 2014 (Local Time) from ESTA Reporting Station
Clear Clear  
Wind Chill: 37°   Ceiling: Unl
Heat Index: 43°   Visibility: 6mi
Dew Point: 39°   Wind: 9mph
Humidity: 87%   Direction: 290°WNW
Pressure: 30.12"   Gusts: NA
Location:  56.12°N, 12.31°E
Report Text: ESTA 250150Z AUTO 29008KT 9999 NCD 06/04 Q1020
Loading
Personal Weather Stations






























Interactive Weather Map New forecast layout! Learn more

10-Day Weather Forecast

Advertisements
Track Severe Weather on mobile